RJCB(METAR)
05/26 18:00
METAR RJCB 260900Z 15005KT 9999 FEW040 BKN/// 19/10 Q1005 RMK 1CU040
A2968=
戻る
トップページへ戻る
IMOC Co,.Ltd.